Virtuous Striker — C6XX6 — position and weather

sailwx.info

Track history (hours):
 
Tides and Currents Weather Stations Pressure Air Temp Water Temp Dewpoint Dewpoint Depression Visibility Wind Speed Wind Dir Waves Ship Positions

Virtuous Striker

Last reported at 2016-Aug-30 10:33 UTC. Time now 2016-Sep-29 10:12 UTC.
Position N 32°40' W 014°13'.
Warning: this ship's position is 29 days out of date.

Length 190 m; draft 11.8 m.

Type: Cargo ship. MMSI: 311025100.

Date/timePositionNaut miles runAvg speedWind from/ knotsBaromVisibWave heightAir tempDewpointWater temp
2016-Aug-30 10:33N 32°40' W 014°13'1111.2
2016-Aug-30 09:31N 32°45' W 014°01'1111.2
2016-Aug-30 08:33N 32°50' W 013°50'1111.2
2016-Aug-30 07:33N 32°55' W 013°38'1111.1
2016-Aug-30 06:33N 32°60' W 013°26'2211.2
2016-Aug-30 04:33N 33°10' W 013°02'2211.2
2016-Aug-30 02:33N 33°19' W 012°38'1110.9
2016-Aug-30 01:33N 33°24' W 012°26'1110.9
2016-Aug-30 00:32N 33°29' W 012°14'1110.9
2016-Aug-29 23:32N 33°34' W 012°03'1110.8
2016-Aug-29 22:32N 33°39' W 011°51'1110.8
2016-Aug-29 21:33N 33°44' W 011°40'1111.1
2016-Aug-29 20:33N 33°49' W 011°28'1111.1
2016-Aug-29 19:34N 33°53' W 011°16'1111.1
2016-Aug-29 18:33N 33°58' W 011°04'1111.2
2016-Aug-29 17:33N 34°03' W 010°52'1111.3
2016-Aug-29 16:33N 34°08' W 010°39'1111.4
2016-Aug-29 15:33N 34°13' W 010°27'1111.2
2016-Aug-29 14:33N 34°18' W 010°15'1111.3
2016-Aug-29 13:33N 34°23' W 010°03'1111.1
2016-Aug-29 12:33N 34°28' W 009°51'1111.0
2016-Aug-29 11:33N 34°33' W 009°39'1111.0
2016-Aug-29 10:33N 34°38' W 009°27'1111.0
2016-Aug-29 09:33N 34°43' W 009°15'1111.0
2016-Aug-29 08:33N 34°47' W 009°03'1111.0
2016-Aug-29 07:33N 34°52' W 008°51'5711.0
2016-Aug-29 02:22N 35°17' W 007°48'2611.5
2016-Aug-29 00:05N 35°29' W 007°19'4211.6
2016-Aug-28 20:29N 35°47' W 006°33'1712.0
2016-Aug-28 19:06N 35°55' W 006°15'813.3
2016-Aug-28 18:29N 35°57' W 006°05'1212.8
2016-Aug-28 17:31N 35°57' W 005°50'1010.1
2016-Aug-28 16:33N 35°58' W 005°38'9 9.0
2016-Aug-28 15:33N 36°01' W 005°27'6 5.5
2016-Aug-28 14:33N 36°06' W 005°24'3 2.9
2016-Aug-28 13:33N 36°09' W 005°23'0 0.1
2016-Aug-28 12:27N 36°09' W 005°23'0 0.0
2016-Aug-28 11:33N 36°09' W 005°23'0 0.0
2016-Aug-28 10:30N 36°09' W 005°23'0 0.1
2016-Aug-28 09:33N 36°09' W 005°23'0 0.0
2016-Aug-28 07:12N 36°09' W 005°23'0 0.2
2016-Aug-28 06:30N 36°09' W 005°23'3 2.9
2016-Aug-28 05:33N 36°06' W 005°22'5 5.5
2016-Aug-28 04:33N 36°05' W 005°15'11010.6
2016-Aug-27 18:10N 36°20' W 003°01'911.2
2016-Aug-27 17:23N 36°21' W 002°50'910.8
2016-Aug-27 16:31N 36°23' W 002°39'1611.7
2016-Aug-27 15:10N 36°25' W 002°19'1011.3
2016-Aug-27 14:16N 36°30' W 002°08'911.6
2016-Aug-27 13:29N 36°38' W 002°03'1111.5
2016-Aug-27 12:32N 36°47' W 001°56'1211.9
2016-Aug-27 11:33N 36°58' W 001°50'  
2016-Aug-23 14:33N 35°60' W 005°17'1212.2
2016-Aug-23 13:33N 35°56' W 005°31'1010.3
2016-Aug-23 12:34N 35°54' W 005°43'4310.1
2016-Aug-23 08:22N 35°27' W 006°24'1011.9
2016-Aug-23 07:32N 35°20' W 006°33'1512.2
2016-Aug-23 06:17N 35°11' W 006°47'912.7
2016-Aug-23 05:32N 35°04' W 006°56'1312.8
2016-Aug-23 04:33N 34°56' W 007°08'1212.3
2016-Aug-23 03:32N 34°48' W 007°19'1211.6
2016-Aug-23 02:32N 34°37' W 007°25'1211.9
2016-Aug-23 01:33N 34°27' W 007°33'1312.1
2016-Aug-23 00:30N 34°18' W 007°44'1111.6
2016-Aug-22 23:33N 34°11' W 007°54'1111.5
2016-Aug-22 22:33N 34°02' W 008°02'1211.8
2016-Aug-22 21:33N 33°53' W 008°11'1211.8
2016-Aug-22 20:33N 33°44' W 008°21'1111.1
2016-Aug-22 19:33N 33°36' W 008°30'1110.8
2016-Aug-22 18:33N 33°29' W 008°39'1110.8
2016-Aug-22 17:33N 33°21' W 008°48'1110.8
2016-Aug-22 16:34N 33°13' W 008°57'1210.6
2016-Aug-22 15:27N 33°04' W 009°07'1010.7
2016-Aug-22 14:32N 32°57' W 009°15'1110.9
2016-Aug-22 13:32N 32°49' W 009°24'1110.8
2016-Aug-22 12:33N 32°41' W 009°32'1111.0
2016-Aug-22 11:34N 32°33' W 009°41'1111.0
2016-Aug-22 10:34N 32°26' W 009°50'1111.2
2016-Aug-22 09:33N 32°18' W 009°59'1211.0
2016-Aug-22 08:25N 32°08' W 010°10'1011.5
2016-Aug-22 07:33N 32°02' W 010°18'1111.4
2016-Aug-22 06:33N 31°53' W 010°27'1111.0
2016-Aug-22 05:33N 31°45' W 010°35'1110.4
2016-Aug-22 04:29N 31°36' W 010°43'14 9.8
2016-Aug-22 03:06N 31°25' W 010°52'5 9.5
2016-Aug-22 02:34N 31°20' W 010°56'10 9.6
2016-Aug-22 01:34N 31°13' W 011°02'10 9.8
2016-Aug-22 00:33N 31°04' W 011°08'10 9.6
2016-Aug-21 23:34N 30°57' W 011°15'10 9.6
2016-Aug-21 22:34N 30°49' W 011°21'10 9.6
2016-Aug-21 21:33N 30°41' W 011°28'1210.1
2016-Aug-21 20:23N 30°31' W 011°36'810.0
2016-Aug-21 19:33N 30°24' W 011°41'1010.1
2016-Aug-21 18:33N 30°16' W 011°48'1110.5
2016-Aug-21 17:33N 30°08' W 011°55'3710.5
2016-Aug-21 14:05N 29°37' W 012°19'610.6
2016-Aug-21 13:33N 29°33' W 012°22'8810.8
2016-Aug-21 05:25N 28°21' W 013°20'1111.4
2016-Aug-21 04:27N 28°12' W 013°27'1011.2
2016-Aug-21 03:32N 28°04' W 013°34'1111.2
2016-Aug-21 02:31N 27°55' W 013°42'1111.2
2016-Aug-21 01:32N 27°45' W 013°49'1211.2
2016-Aug-21 00:30N 27°36' W 013°56'1111.2
2016-Aug-20 23:29N 27°26' W 014°03'2411.0
2016-Aug-20 21:18N 27°07' W 014°19'810.9
2016-Aug-20 20:34N 27°00' W 014°24'2610.8
2016-Aug-20 18:07N 26°39' W 014°41'  
Track history (hours):
 
Tides and Currents Weather Stations Pressure Air Temp Water Temp Dewpoint Dewpoint Depression Visibility Wind Speed Wind Dir Waves Ship Positions

Virtuous Striker

Last reported at 2016-Aug-30 10:33 UTC. Time now 2016-Sep-29 10:12 UTC.
Position N 32°40' W 014°13'.
Warning: this ship's position is 29 days out of date.

Length 190 m; draft 11.8 m.

Type: Cargo ship. MMSI: 311025100.

Date/timePositionNaut miles runAvg speedWind from/ knotsBaromVisibWave heightAir tempDewpointWater temp
2016-Aug-30 10:33N 32°40' W 014°13'1111.2
2016-Aug-30 09:31N 32°45' W 014°01'1111.2
2016-Aug-30 08:33N 32°50' W 013°50'1111.2
2016-Aug-30 07:33N 32°55' W 013°38'1111.1
2016-Aug-30 06:33N 32°60' W 013°26'2211.2
2016-Aug-30 04:33N 33°10' W 013°02'2211.2
2016-Aug-30 02:33N 33°19' W 012°38'1110.9
2016-Aug-30 01:33N 33°24' W 012°26'1110.9
2016-Aug-30 00:32N 33°29' W 012°14'1110.9
2016-Aug-29 23:32N 33°34' W 012°03'1110.8
2016-Aug-29 22:32N 33°39' W 011°51'1110.8
2016-Aug-29 21:33N 33°44' W 011°40'1111.1
2016-Aug-29 20:33N 33°49' W 011°28'1111.1
2016-Aug-29 19:34N 33°53' W 011°16'1111.1
2016-Aug-29 18:33N 33°58' W 011°04'1111.2
2016-Aug-29 17:33N 34°03' W 010°52'1111.3
2016-Aug-29 16:33N 34°08' W 010°39'1111.4
2016-Aug-29 15:33N 34°13' W 010°27'1111.2
2016-Aug-29 14:33N 34°18' W 010°15'1111.3
2016-Aug-29 13:33N 34°23' W 010°03'1111.1
2016-Aug-29 12:33N 34°28' W 009°51'1111.0
2016-Aug-29 11:33N 34°33' W 009°39'1111.0
2016-Aug-29 10:33N 34°38' W 009°27'1111.0
2016-Aug-29 09:33N 34°43' W 009°15'1111.0
2016-Aug-29 08:33N 34°47' W 009°03'1111.0
2016-Aug-29 07:33N 34°52' W 008°51'5711.0
2016-Aug-29 02:22N 35°17' W 007°48'2611.5
2016-Aug-29 00:05N 35°29' W 007°19'4211.6
2016-Aug-28 20:29N 35°47' W 006°33'1712.0
2016-Aug-28 19:06N 35°55' W 006°15'813.3
2016-Aug-28 18:29N 35°57' W 006°05'1212.8
2016-Aug-28 17:31N 35°57' W 005°50'1010.1
2016-Aug-28 16:33N 35°58' W 005°38'9 9.0
2016-Aug-28 15:33N 36°01' W 005°27'6 5.5
2016-Aug-28 14:33N 36°06' W 005°24'3 2.9
2016-Aug-28 13:33N 36°09' W 005°23'0 0.1
2016-Aug-28 12:27N 36°09' W 005°23'0 0.0
2016-Aug-28 11:33N 36°09' W 005°23'0 0.0
2016-Aug-28 10:30N 36°09' W 005°23'0 0.1
2016-Aug-28 09:33N 36°09' W 005°23'0 0.0
2016-Aug-28 07:12N 36°09' W 005°23'0 0.2
2016-Aug-28 06:30N 36°09' W 005°23'3 2.9
2016-Aug-28 05:33N 36°06' W 005°22'5 5.5
2016-Aug-28 04:33N 36°05' W 005°15'11010.6
2016-Aug-27 18:10N 36°20' W 003°01'911.2
2016-Aug-27 17:23N 36°21' W 002°50'910.8
2016-Aug-27 16:31N 36°23' W 002°39'1611.7
2016-Aug-27 15:10N 36°25' W 002°19'1011.3
2016-Aug-27 14:16N 36°30' W 002°08'911.6
2016-Aug-27 13:29N 36°38' W 002°03'1111.5
2016-Aug-27 12:32N 36°47' W 001°56'1211.9
2016-Aug-27 11:33N 36°58' W 001°50'  
2016-Aug-23 14:33N 35°60' W 005°17'1212.2
2016-Aug-23 13:33N 35°56' W 005°31'1010.3
2016-Aug-23 12:34N 35°54' W 005°43'4310.1
2016-Aug-23 08:22N 35°27' W 006°24'1011.9
2016-Aug-23 07:32N 35°20' W 006°33'1512.2
2016-Aug-23 06:17N 35°11' W 006°47'912.7
2016-Aug-23 05:32N 35°04' W 006°56'1312.8
2016-Aug-23 04:33N 34°56' W 007°08'1212.3
2016-Aug-23 03:32N 34°48' W 007°19'1211.6
2016-Aug-23 02:32N 34°37' W 007°25'1211.9
2016-Aug-23 01:33N 34°27' W 007°33'1312.1
2016-Aug-23 00:30N 34°18' W 007°44'1111.6
2016-Aug-22 23:33N 34°11' W 007°54'1111.5
2016-Aug-22 22:33N 34°02' W 008°02'1211.8
2016-Aug-22 21:33N 33°53' W 008°11'1211.8
2016-Aug-22 20:33N 33°44' W 008°21'1111.1
2016-Aug-22 19:33N 33°36' W 008°30'1110.8
2016-Aug-22 18:33N 33°29' W 008°39'1110.8
2016-Aug-22 17:33N 33°21' W 008°48'1110.8
2016-Aug-22 16:34N 33°13' W 008°57'1210.6
2016-Aug-22 15:27N 33°04' W 009°07'1010.7
2016-Aug-22 14:32N 32°57' W 009°15'1110.9
2016-Aug-22 13:32N 32°49' W 009°24'1110.8
2016-Aug-22 12:33N 32°41' W 009°32'1111.0
2016-Aug-22 11:34N 32°33' W 009°41'1111.0
2016-Aug-22 10:34N 32°26' W 009°50'1111.2
2016-Aug-22 09:33N 32°18' W 009°59'1211.0
2016-Aug-22 08:25N 32°08' W 010°10'1011.5
2016-Aug-22 07:33N 32°02' W 010°18'1111.4
2016-Aug-22 06:33N 31°53' W 010°27'1111.0
2016-Aug-22 05:33N 31°45' W 010°35'1110.4
2016-Aug-22 04:29N 31°36' W 010°43'14 9.8
2016-Aug-22 03:06N 31°25' W 010°52'5 9.5
2016-Aug-22 02:34N 31°20' W 010°56'10 9.6
2016-Aug-22 01:34N 31°13' W 011°02'10 9.8
2016-Aug-22 00:33N 31°04' W 011°08'10 9.6
2016-Aug-21 23:34N 30°57' W 011°15'10 9.6
2016-Aug-21 22:34N 30°49' W 011°21'10 9.6
2016-Aug-21 21:33N 30°41' W 011°28'1210.1
2016-Aug-21 20:23N 30°31' W 011°36'810.0
2016-Aug-21 19:33N 30°24' W 011°41'1010.1
2016-Aug-21 18:33N 30°16' W 011°48'1110.5
2016-Aug-21 17:33N 30°08' W 011°55'3710.5
2016-Aug-21 14:05N 29°37' W 012°19'610.6
2016-Aug-21 13:33N 29°33' W 012°22'8810.8
2016-Aug-21 05:25N 28°21' W 013°20'1111.4
2016-Aug-21 04:27N 28°12' W 013°27'1011.2
2016-Aug-21 03:32N 28°04' W 013°34'1111.2
2016-Aug-21 02:31N 27°55' W 013°42'1111.2
2016-Aug-21 01:32N 27°45' W 013°49'1211.2
2016-Aug-21 00:30N 27°36' W 013°56'1111.2
2016-Aug-20 23:29N 27°26' W 014°03'2411.0
2016-Aug-20 21:18N 27°07' W 014°19'810.9
2016-Aug-20 20:34N 27°00' W 014°24'2610.8
2016-Aug-20 18:07N 26°39' W 014°41'  

Dump ship's entire track history